AirNav   Air Wisconsin Up To $57,000 Bonus
 
 378 users online  

Y93 Atlanta Municipal Airport
Atlanta, Michigan, USA

GOING TO ATLANTA?


FAA INFORMATION EFFECTIVE 22 APRIL 2021

Location

FAA Identifier: Y93
Lat/Long: 44-59-48.8216N 084-07-38.0437W
44-59.813693N 084-07.634062W
44.9968949,-84.1272344
(estimated)
Elevation: 880 ft. / 268 m (estimated)
Variation: 06W (1985)
From city: 1 mile SE of ATLANTA, MI
Time zone: UTC -4 (UTC -5 during Standard Time)
Zip code: 49709

Airport Operations

Airport use: Open to the public
Activation date: 04/1940
Control tower: no
ARTCC: MINNEAPOLIS CENTER
FSS: LANSING FLIGHT SERVICE STATION
NOTAMs facility: LAN (NOTAM-D service available)
Attendance: ON REQ
Wind indicator: lighted
Segmented circle: yes
Lights: ACTVT LIRL RY 13/31 & LIRL RY 05/23, PAPI RY 23 - CTAF.

Airport Communications

CTAF: 122.9

Nearby radio navigation aids

VOR radial/distance  VOR name  Freq  Var
GLRr098/24.5GAYLORD VOR/DME109.2006W
APNr265/24.7ALPENA VORTAC108.8007W
CGGr060/(31.8)GRAYLING VOR109.8006W

 
NDB name  Hdg/Dist  Freq  Var  ID
GRAYLING070/33.335906WGYG --. -.-- --.

Airport Services

Parking: tiedowns

Runway Information

Runway 5/23

Dimensions: 3000 x 60 ft. / 914 x 18 m
Surface: asphalt, in good condition
Runway edge lights: low intensity
Runway edge markings: RUNWAY MARKINGS FADED
RUNWAY 5  RUNWAY 23
Latitude: 44-59.624167N44-59.963167N
Longitude: 084-07.884000W084-07.378167W
Elevation: 880.0 ft.872.0 ft.
Traffic pattern: leftleft
Runway heading: 052 magnetic, 046 true232 magnetic, 226 true
Displaced threshold: 1494 ft.370 ft.
Markings: basic, in poor conditionbasic, in poor condition
Visual slope indicator: 2-light PAPI on left (4.00 degrees glide path)
Obstructions: 80 ft. trees, 392 ft. from runway, 135 ft. left of centerline, 3:1 slope to clear
APCH RATIO 25:1 AT DSPLCD THLD.
46 ft. trees, 904 ft. from runway, 125 ft. right of centerline, 15:1 slope to clear
APCH RATIO 25:1 AT DSPLCD THLD BASED ON STRAIGHT OUT.

Runway 13/31

Dimensions: 3223 x 100 ft. / 982 x 30 m
Surface: turf, in fair condition
Runway edge lights: low intensity
LIRL OPERATES JUN THRU SEP.
Runway edge markings: 13/31 MKD WITH 3 FT YELLOW CONES.
RUNWAY 13  RUNWAY 31
Latitude: 44-59.992000N44-59.672667N
Longitude: 084-07.935333W084-07.338333W
Elevation: 876.0 ft.872.8 ft.
Traffic pattern: leftleft
Runway heading: 133 magnetic, 127 true313 magnetic, 307 true
Displaced threshold: 758 ft.569 ft.
Obstructions: 58 ft. trees, 50 ft. from runway, 120 ft. left of centerline
APCH RATIO 20:1 AT DSPLCD THLD.
62 ft. trees, 200 ft. from runway, 125 ft. right of centerline, 3:1 slope to clear
APCH RATIO 19:1 AT DSPLCD THLD OVR 50 FT TREES, 911 FT FM DSPLCD THLD, 0 B; 12:1 OVR 73 FT TREES, 939 FT DSTC, 70 FT L.

Airport Ownership and Management from official FAA records

Ownership: Publicly-owned
Owner: BRILEY & AVERY TWPS
P.O. BOX 322
ATLANTA, MI 49709
Phone 989-785-4050
BRILEY TWP OFC.
Manager: DALE LA CLAIR
11746 COUNTY RD 487, 7570 M-32
ATLANTA, MI 49709
Phone (989) 785-4590
TOM WEBER, ASST. MGR 989-306-0926

Airport Operational Statistics

Aircraft based on the field: 10
Single engine airplanes: 10
    
Aircraft operations: avg 27/week *
50% transient general aviation
50% local general aviation
* for 12-month period ending 31 December 2016

Additional Remarks

FOR WINTER COND/SNOW REMOVAL RY 05/23 CONFIRM PRIOR TO USE; CALL 989-306-6408 OR 989-306-0926; NO SNOW REMOVAL RY 13/31.
RY 13/31 CLSD NOV-APR & WHEN SNOW COVERED.
FOR CD CTC MINNEAPOLIS ARTCC AT 651-463-5588.

Instrument Procedures

There are no published instrument procedures at Y93.

Some nearby airports with instrument procedures:

KGLR - Gaylord Regional Airport (24 nm W)
KAPN - Alpena County Regional Airport (25 nm E)
KPZQ - Presque Isle County Airport (28 nm NE)
KGOV - Grayling Army Airfield (32 nm SW)
KBFA - Boyne Mountain Airport (35 nm W)
 
Loc | Ops | Rwys | IFR | FBO | Links
Com | Nav | Svcs | Stats | Notes
Area around Y93 (Atlanta Municipal Airport)
 
Road maps at: MapQuest Bing Google
 
Aerial photo
WARNING: Photo may not be current or correct
Aerial photo of Y93 (Atlanta Municipal Airport)
Do you have a better or more recent aerial photo of Atlanta Municipal Airport that you would like to share? If so, please send us your photo.

 
Sectional chart

 
Airport distance calculator
Flying to Atlanta Municipal Airport? Find the distance to fly.

From to Y93

Sunrise and sunset
Times for 10-May-2021
 Local
(UTC-4)
 Zulu
(UTC)
Morning civil twilight05:4109:41
Sunrise06:1410:14
Sunset20:5100:51
Evening civil twilight21:2501:25

Current date and time
Zulu (UTC)  10-May-2021 08:30:58
Local (UTC-4)  10-May-2021 04:30:58
 
METAR
KGLR 
24nm W 
100753Z AUTO 29006KT 10SM CLR 02/M02 A3000 RMK AO2 SLP167 T00171022
KAPN 
24nm E 
100754Z AUTO 28005KT 10SM CLR 01/M02 A2999 RMK AO2 SLP161 T00111017
KPZQ 
28nm NE 
100815Z AUTO 27005KT 10SM CLR 01/M01 A3001 RMK AO2 T00071008
KGOV 
32nm SW 
100758Z AUTO 28004KT 10SM CLR M02/M03 A3002 RMK AO2 SLP181 T10171029 $
KMGN 
42nm NW 
100815Z AUTO 24003KT 10SM CLR 00/00 A3003 RMK AO2 T00021006
KSLH 
42nm NW 
100815Z AUTO 26004KT 10SM BKN065 00/M00 A3001 RMK AO2
KPLN 
44nm NW 
100754Z AUTO 29007KT 10SM CLR 01/M01 A3003 RMK AO2 SLP175 T00111006
KHTL 
45nm SW 
100753Z AUTO 32007KT 10SM CLR M01/M03 A3003 RMK AO2 SLP177 T10061028
KOSC 
45nm SE 
100815Z AUTO 28005KT 10SM CLR 00/M03 A3000 RMK AO2 T00001028
KY31 
45nm S 
100815Z AUTO 29013G17KT 10SM CLR 01/M03 A3001 RMK AO2 T00131030
TAF
KAPN 
24nm E 
100522Z 1006/1106 31005KT P6SM SKC FM101500 32011G20KT P6SM BKN050 FM110000 32007KT P6SM BKN050
NOTAMs
Click for the latest NOTAMs
NOTAMs are issued by the DoD/FAA and will open in a separate window not controlled by AirNav.

 

 
 

Would you like to see your business listed on this page?

 If your business provides an interesting product or service to pilots, flight crews, aircraft, or users of the Atlanta Municipal Airport, you should consider listing it here.  To start the listing process, click on the button below
 
Add a business
 

Other Pages about Atlanta Municipal Airport

Page from the Michigan Airport Directory (PDF)
 
Update a link
 
Copyright © AirNav, LLC. All rights reserved. Privacy Policy  Contact